Time;durP1;ratioP1;P1;durP2;ratioP2;P2;SDS_P1;SDS_P2;PMS_P1;PMS_P2;Temp;Humidity;BMP_temperature;BMP_pressure;BME280_temperature;BME280_humidity;BME280_pressure;Samples;Min_cycle;Max_cycle;Signal;HPM_P1;HPM_P2
2023/12/07 00:01:52;;;;;;;23.67;14.00;;;;;;;4.20;83.64;94372.22;5099517;28;20031;-75
2023/12/07 00:04:18;;;;;;;29.42;15.30;;;;;;;4.25;83.58;94370.19;5070412;28;20078;-76
2023/12/07 00:06:43;;;;;;;23.70;14.65;;;;;;;4.00;83.94;94343.50;5090402;28;20028;-75
2023/12/07 00:09:09;;;;;;;29.15;15.55;;;;;;;4.09;83.80;94362.63;5066556;28;20028;-76
2023/12/07 00:11:34;;;;;;;29.90;14.52;;;;;;;4.16;83.83;94363.09;5087980;28;20016;-76
2023/12/07 00:13:59;;;;;;;24.35;14.35;;;;;;;4.28;83.67;94364.84;5087690;28;20394;-76
2023/12/07 00:16:25;;;;;;;25.15;15.15;;;;;;;4.24;83.91;94374.50;5070149;28;20028;-76
2023/12/07 00:18:50;;;;;;;21.90;13.77;;;;;;;4.34;83.66;94379.88;5084695;28;20039;-76
2023/12/07 00:21:16;;;;;;;21.70;12.18;;;;;;;4.38;83.54;94371.03;5070391;28;20560;-76
2023/12/07 00:23:41;;;;;;;26.40;13.00;;;;;;;4.34;83.35;94369.59;5087546;28;20508;-75
2023/12/07 00:26:06;;;;;;;21.40;14.13;;;;;;;4.49;83.25;94380.63;5088330;28;20477;-76
2023/12/07 00:28:32;;;;;;;30.23;14.77;;;;;;;4.37;83.06;94360.84;5062460;28;20482;-76
2023/12/07 00:30:57;;;;;;;23.73;14.18;;;;;;;4.55;82.85;94375.06;5084557;28;20043;-76
2023/12/07 00:33:23;;;;;;;25.00;14.73;;;;;;;4.55;82.89;94371.69;5126149;27;20444;-75
2023/12/07 00:35:49;;;;;;;26.08;15.43;;;;;;;4.48;83.15;94376.41;5086740;28;20047;-75
2023/12/07 00:38:15;;;;;;;26.25;15.45;;;;;;;4.53;82.94;94376.91;5086706;28;20421;-76
2023/12/07 00:40:40;;;;;;;25.60;14.05;;;;;;;4.43;83.02;94357.88;5086005;28;20698;-75
2023/12/07 00:43:07;;;;;;;27.95;16.48;;;;;;;4.50;82.96;94384.03;5086434;28;20493;-75
2023/12/07 00:45:32;;;;;;;26.33;15.43;;;;;;;4.53;82.84;94378.69;5090804;28;20024;-75
2023/12/07 00:47:57;;;;;;;25.35;14.95;;;;;;;4.47;83.07;94383.28;5069766;28;20519;-76
2023/12/07 00:50:23;;;;;;;28.13;16.75;;;;;;;4.37;83.60;94384.00;5070232;28;20421;-76
2023/12/07 00:52:48;;;;;;;31.92;17.05;;;;;;;4.33;83.91;94380.81;5086274;28;20065;-75
2023/12/07 00:55:14;;;;;;;37.05;18.45;;;;;;;4.37;83.69;94376.28;5065293;28;20090;-75
2023/12/07 00:57:40;;;;;;;32.38;17.98;;;;;;;4.27;83.94;94370.91;5083944;28;20044;-75
2023/12/07 01:00:08;;;;;;;28.95;16.75;;;;;;;4.34;84.01;94364.44;5086000;28;20024;-75
2023/12/07 01:02:34;;;;;;;30.80;16.92;;;;;;;4.11;83.98;94335.09;5084771;28;20028;-75
2023/12/07 01:04:59;;;;;;;32.75;17.40;;;;;;;4.30;84.17;94364.75;5102681;28;20531;-76
2023/12/07 01:07:25;;;;;;;26.38;15.57;;;;;;;4.31;84.20;94367.22;5085795;28;20186;-75
2023/12/07 01:09:50;;;;;;;30.05;17.17;;;;;;;4.36;84.09;94366.91;5090783;28;20793;-75
2023/12/07 01:12:15;;;;;;;26.40;15.45;;;;;;;4.27;84.01;94358.06;5068378;28;20402;-76
2023/12/07 01:14:41;;;;;;;26.48;14.80;;;;;;;4.29;83.94;94358.81;5086863;28;20406;-75
2023/12/07 01:17:06;;;;;;;24.45;13.45;;;;;;;4.29;83.41;94350.22;5087105;28;20032;-75
2023/12/07 01:19:32;;;;;;;23.63;13.63;;;;;;;4.09;83.69;94351.53;5082715;28;20032;-75
2023/12/07 01:21:57;;;;;;;26.00;14.23;;;;;;;4.06;83.99;94355.13;5072856;28;20028;-76
2023/12/07 01:24:23;;;;;;;28.13;15.00;;;;;;;3.96;84.40;94347.19;5087525;28;20028;-75
2023/12/07 01:26:48;;;;;;;26.95;15.00;;;;;;;3.64;85.06;94325.28;5088253;28;20038;-75
2023/12/07 01:29:13;;;;;;;30.88;15.98;;;;;;;4.00;84.82;94346.06;5082421;28;20048;-75
2023/12/07 01:31:40;;;;;;;27.45;15.00;;;;;;;4.03;84.56;94348.44;5070523;28;20047;-75
2023/12/07 01:34:05;;;;;;;25.15;14.23;;;;;;;4.02;84.86;94336.50;5087307;28;20028;-75
2023/12/07 01:36:31;;;;;;;30.65;16.02;;;;;;;3.85;85.17;94343.69;5086887;28;20089;-75
2023/12/07 01:38:56;;;;;;;25.02;15.07;;;;;;;3.84;85.34;94340.25;5086876;28;20886;-75
2023/12/07 01:41:21;;;;;;;24.85;14.10;;;;;;;3.63;85.85;94303.09;5069621;28;20024;-75
2023/12/07 01:43:47;;;;;;;27.05;14.63;;;;;;;3.95;85.04;94332.69;5085743;28;20501;-75
2023/12/07 01:46:12;;;;;;;28.73;17.17;;;;;;;3.93;84.79;94316.56;5069375;28;20028;-75
2023/12/07 01:48:38;;;;;;;34.03;19.65;;;;;;;3.92;84.69;94324.34;5115787;27;20033;-75
2023/12/07 01:51:03;;;;;;;28.58;18.40;;;;;;;3.84;85.11;94335.13;5051881;28;20032;-75
2023/12/07 01:53:29;;;;;;;31.77;16.85;;;;;;;3.90;85.09;94329.59;5073581;28;20042;-75
2023/12/07 01:55:54;;;;;;;35.75;18.83;;;;;;;3.92;85.33;94337.22;5089859;28;20058;-76
2023/12/07 01:58:20;;;;;;;27.20;15.60;;;;;;;4.01;85.19;94329.75;5069071;28;20089;-75
2023/12/07 02:00:46;;;;;;;27.55;16.73;;;;;;;4.07;84.67;94337.94;5069688;28;20029;-75
2023/12/07 02:03:12;;;;;;;27.35;16.05;;;;;;;4.17;84.45;94344.16;5073390;28;20032;-75
2023/12/07 02:05:37;;;;;;;24.65;13.55;;;;;;;4.31;83.38;94338.09;5057313;28;20038;-76
2023/12/07 02:08:04;;;;;;;23.63;13.55;;;;;;;4.42;82.86;94349.31;5069193;28;20042;-75
2023/12/07 02:10:30;;;;;;;21.08;12.35;;;;;;;4.37;82.63;94329.97;5090789;28;20399;-75
2023/12/07 02:12:55;;;;;;;24.08;13.07;;;;;;;4.06;82.88;94315.75;5092205;28;20024;-75
2023/12/07 02:15:21;;;;;;;22.30;13.48;;;;;;;4.18;83.66;94345.78;5071386;28;20492;-75
2023/12/07 02:18:22;;;;;;;19.58;12.35;;;;;;;4.32;83.35;94350.88;5069015;28;20029;-75
2023/12/07 02:20:56;;;;;;;17.55;10.82;;;;;;;4.39;82.87;94349.53;5081662;28;20064;-76
2023/12/07 02:23:21;;;;;;;18.60;11.05;;;;;;;4.44;82.68;94344.09;5123612;27;20028;-75
2023/12/07 02:25:54;;;;;;;18.52;10.65;;;;;;;4.17;83.21;94339.00;5088977;28;20024;-76
2023/12/07 02:28:19;;;;;;;18.85;11.30;;;;;;;4.21;83.44;94340.47;5052836;28;20024;-76
2023/12/07 02:30:44;;;;;;;20.25;11.68;;;;;;;4.18;83.38;94335.50;5090206;28;20047;-75
2023/12/07 02:33:10;;;;;;;17.60;11.02;;;;;;;4.20;83.64;94337.06;5054171;28;20048;-76
2023/12/07 02:35:37;;;;;;;15.30;9.55;;;;;;;4.35;83.28;94337.00;5093852;28;20028;-76
2023/12/07 02:38:03;;;;;;;18.63;10.70;;;;;;;4.41;82.75;94334.84;5084534;28;20031;-75
2023/12/07 02:40:28;;;;;;;15.10;9.20;;;;;;;4.46;82.73;94335.34;5111538;28;20043;-75
2023/12/07 02:42:54;;;;;;;15.38;10.50;;;;;;;4.30;83.27;94332.16;5104492;28;20043;-75
2023/12/07 02:45:19;;;;;;;16.20;10.82;;;;;;;4.23;83.37;94321.44;5075824;28;20519;-75
2023/12/07 02:47:45;;;;;;;17.42;11.02;;;;;;;4.30;83.75;94332.16;5144412;27;20485;-75
2023/12/07 02:50:11;;;;;;;17.73;11.63;;;;;;;4.15;83.55;94316.00;5113147;28;20039;-75
2023/12/07 02:52:36;;;;;;;19.30;12.40;;;;;;;3.56;83.83;94234.13;5081920;28;20422;-75
2023/12/07 02:55:02;;;;;;;23.92;14.25;;;;;;;4.26;83.97;94340.97;5092501;28;20058;-76
2023/12/07 02:57:29;;;;;;;23.58;13.70;;;;;;;4.35;83.69;94332.66;5092498;28;20052;-75
2023/12/07 02:59:54;;;;;;;27.08;16.13;;;;;;;4.18;83.72;94330.38;5092086;28;20525;-75
2023/12/07 03:02:19;;;;;;;28.80;15.60;;;;;;;4.33;83.74;94333.69;5074189;28;20030;-75
2023/12/07 03:04:45;;;;;;;33.60;17.67;;;;;;;4.48;82.65;94330.94;5093344;28;20028;-76
2023/12/07 03:07:10;;;;;;;20.58;13.57;;;;;;;4.52;82.52;94339.28;5075238;28;20063;-75
2023/12/07 03:09:36;;;;;;;19.10;12.73;;;;;;;4.33;82.65;94321.66;5124817;27;20419;-75
2023/12/07 03:12:01;;;;;;;21.17;13.13;;;;;;;4.38;83.11;94324.75;5075330;28;20058;-75
2023/12/07 03:14:27;;;;;;;18.50;12.80;;;;;;;4.40;83.02;94337.50;5075085;28;20093;-75
2023/12/07 03:16:52;;;;;;;21.05;13.25;;;;;;;4.38;83.32;94336.78;5091909;28;20028;-75
2023/12/07 03:19:17;;;;;;;21.35;13.23;;;;;;;4.34;83.40;94343.88;5091059;28;20020;-75
2023/12/07 03:21:43;;;;;;;18.13;11.45;;;;;;;4.43;82.92;94348.44;5093129;28;20028;-76
2023/12/07 03:24:09;;;;;;;16.60;10.88;;;;;;;4.51;82.86;94347.06;5094491;28;20036;-75
2023/12/07 03:26:35;;;;;;;18.35;11.70;;;;;;;4.30;82.97;94339.88;5091841;28;20035;-75
2023/12/07 03:29:00;;;;;;;20.67;11.93;;;;;;;4.24;83.10;94350.56;5090356;28;20051;-76
2023/12/07 03:31:25;;;;;;;15.88;10.45;;;;;;;4.46;82.94;94349.97;5074856;28;20032;-76
2023/12/07 03:33:51;;;;;;;16.63;10.70;;;;;;;4.55;82.50;94354.50;5080283;28;20023;-76
2023/12/07 03:36:16;;;;;;;16.33;10.13;;;;;;;4.53;82.52;94350.38;5112184;28;20031;-76
2023/12/07 03:38:42;;;;;;;18.50;11.25;;;;;;;4.57;82.32;94357.81;5091195;28;20415;-75
2023/12/07 03:41:08;;;;;;;21.35;13.07;;;;;;;4.54;82.58;94357.16;5091512;28;20040;-76
2023/12/07 03:43:33;;;;;;;23.20;14.20;;;;;;;4.51;82.76;94362.50;5106077;28;20031;-75
2023/12/07 03:45:58;;;;;;;20.80;12.43;;;;;;;4.59;82.53;94360.25;5106745;28;20031;-75
2023/12/07 03:48:24;;;;;;;18.10;10.07;;;;;;;4.64;82.17;94358.19;5091535;28;20028;-76
2023/12/07 03:50:49;;;;;;;20.10;12.43;;;;;;;4.70;81.80;94357.78;5108271;28;20028;-75
2023/12/07 03:53:15;;;;;;;20.73;12.30;;;;;;;4.71;82.01;94359.44;5074358;28;20031;-75
2023/12/07 03:55:41;;;;;;;24.17;14.10;;;;;;;4.74;81.98;94356.66;5081710;28;20044;-76
2023/12/07 03:58:06;;;;;;;22.88;13.80;;;;;;;4.66;82.06;94349.47;5071101;28;20031;-75
2023/12/07 04:00:32;;;;;;;20.98;13.32;;;;;;;4.62;82.07;94345.44;5070735;28;20438;-75
2023/12/07 04:02:58;;;;;;;22.40;13.20;;;;;;;4.64;82.15;94346.16;5054348;28;20408;-75
2023/12/07 04:05:23;;;;;;;24.60;15.55;;;;;;;4.65;82.39;94354.69;5085939;28;20470;-75
2023/12/07 04:07:48;;;;;;;25.13;16.05;;;;;;;4.63;82.51;94344.53;5074113;28;20039;-75
2023/12/07 04:10:14;;;;;;;29.30;17.80;;;;;;;4.53;82.43;94345.22;5096458;28;20508;-75
2023/12/07 04:12:40;;;;;;;28.27;17.95;;;;;;;4.45;82.65;94349.13;5110171;28;20031;-75
2023/12/07 04:15:06;;;;;;;31.63;18.77;;;;;;;4.40;83.22;94351.19;5089401;28;20033;-75
2023/12/07 04:17:31;;;;;;;27.63;16.80;;;;;;;4.40;83.28;94353.78;5091981;28;20058;-75
2023/12/07 04:19:56;;;;;;;30.10;18.02;;;;;;;4.27;83.87;94349.53;5107587;28;20097;-75
2023/12/07 04:22:22;;;;;;;31.13;18.15;;;;;;;4.18;84.52;94364.63;5089385;28;20081;-75
2023/12/07 04:24:48;;;;;;;27.33;16.52;;;;;;;4.26;84.96;94364.13;5091762;28;20043;-75
2023/12/07 04:27:13;;;;;;;28.73;17.48;;;;;;;4.33;84.67;94359.41;5090626;28;20035;-75
2023/12/07 04:29:39;;;;;;;32.40;19.13;;;;;;;4.25;84.70;94362.47;5107330;28;20063;-75
2023/12/07 04:32:06;;;;;;;34.47;19.23;;;;;;;4.06;85.22;94372.31;5097668;28;20047;-75
2023/12/07 04:34:31;;;;;;;31.25;20.00;;;;;;;4.22;85.08;94378.94;5110889;28;20059;-75
2023/12/07 04:36:56;;;;;;;34.05;19.65;;;;;;;4.40;84.63;94382.06;5110754;28;20485;-75
2023/12/07 04:39:22;;;;;;;35.38;22.05;;;;;;;4.54;83.87;94378.59;5093832;28;20405;-75
2023/12/07 04:41:49;;;;;;;42.97;29.10;;;;;;;4.63;83.71;94377.16;5089451;28;20036;-75
2023/12/07 04:44:15;;;;;;;45.83;29.02;;;;;;;4.66;83.14;94380.34;5090416;28;20469;-75
2023/12/07 04:46:40;;;;;;;39.55;27.98;;;;;;;4.70;83.18;94378.38;5090127;28;20039;-75
2023/12/07 04:49:06;;;;;;;34.25;23.20;;;;;;;4.77;82.86;94383.94;5055205;28;20036;-75
2023/12/07 04:51:31;;;;;;;32.30;21.83;;;;;;;4.74;82.63;94374.69;5073490;28;20053;-75
2023/12/07 04:53:57;;;;;;;36.08;21.75;;;;;;;4.83;82.31;94386.09;5090139;28;20410;-75
2023/12/07 04:56:23;;;;;;;32.40;21.83;;;;;;;4.84;82.33;94386.00;5073271;28;20039;-75
2023/12/07 04:58:48;;;;;;;33.33;21.88;;;;;;;4.87;82.02;94388.34;5089002;28;20032;-75
2023/12/07 05:01:14;;;;;;;34.08;21.15;;;;;;;4.88;82.10;94382.31;5090108;28;20504;-75
2023/12/07 05:03:39;;;;;;;33.50;19.63;;;;;;;4.74;82.49;94368.72;5091319;28;20043;-75
2023/12/07 05:06:05;;;;;;;32.05;19.25;;;;;;;4.84;82.23;94390.31;5089987;28;20043;-75
2023/12/07 05:08:31;;;;;;;28.17;18.73;;;;;;;4.60;82.41;94378.19;5089557;28;20031;-75
2023/12/07 05:10:57;;;;;;;24.27;15.95;;;;;;;4.52;83.19;94395.03;5089920;28;20111;-75
2023/12/07 05:13:23;;;;;;;27.67;16.15;;;;;;;4.67;82.88;94389.69;5056322;28;20482;-75
2023/12/07 05:15:48;;;;;;;25.50;15.15;;;;;;;4.47;83.33;94398.72;5057406;28;20035;-75
2023/12/07 05:18:14;;;;;;;23.98;14.35;;;;;;;4.57;83.29;94396.38;5087680;28;20043;-75
2023/12/07 05:20:39;;;;;;;26.73;15.57;;;;;;;4.58;83.07;94392.06;5071476;28;20032;-75
2023/12/07 05:23:05;;;;;;;26.00;15.27;;;;;;;4.62;83.36;94409.75;5089790;28;20028;-75
2023/12/07 05:25:32;;;;;;;27.75;15.15;;;;;;;4.53;83.71;94404.41;5088735;28;20545;-75
2023/12/07 05:27:57;;;;;;;27.40;15.65;;;;;;;4.51;83.67;94408.81;5093630;28;20028;-75
2023/12/07 05:30:23;;;;;;;24.67;14.90;;;;;;;4.51;83.83;94409.63;5095562;28;20526;-75
2023/12/07 05:32:48;;;;;;;31.00;15.38;;;;;;;4.61;83.78;94409.88;5106530;28;20032;-75
2023/12/07 05:35:14;;;;;;;24.77;14.00;;;;;;;4.62;83.66;94412.31;5097216;28;20028;-75
2023/12/07 05:37:39;;;;;;;26.95;16.02;;;;;;;4.60;83.45;94409.06;5115953;28;20020;-75
2023/12/07 05:40:23;;;;;;;30.33;16.50;;;;;;;4.56;83.81;94419.63;5116502;27;20031;-75
2023/12/07 05:42:49;;;;;;;26.88;15.80;;;;;;;4.54;83.49;94413.75;5102235;28;20199;-75
2023/12/07 05:45:14;;;;;;;28.35;16.52;;;;;;;4.44;83.87;94409.22;5095322;28;20057;-75
2023/12/07 05:47:40;;;;;;;28.05;16.20;;;;;;;4.56;83.98;94417.88;5079224;28;20040;-75
2023/12/07 05:50:06;;;;;;;27.92;15.25;;;;;;;4.59;83.72;94420.25;5079089;28;20032;-75
2023/12/07 05:52:31;;;;;;;24.35;15.02;;;;;;;4.62;83.61;94411.50;5096301;28;20047;-75
2023/12/07 05:54:57;;;;;;;27.98;16.88;;;;;;;4.64;83.56;94415.63;5096331;28;20024;-75
2023/12/07 05:57:22;;;;;;;26.65;15.57;;;;;;;4.60;83.47;94418.53;5097537;28;20035;-75
2023/12/07 05:59:48;;;;;;;25.02;14.52;;;;;;;4.51;83.67;94414.78;5098888;28;20491;-75
2023/12/07 06:02:13;;;;;;;25.60;14.55;;;;;;;4.53;83.82;94424.97;5097373;28;20042;-75
2023/12/07 06:04:38;;;;;;;24.88;14.55;;;;;;;4.69;83.12;94421.31;5097227;28;20413;-75
2023/12/07 06:07:04;;;;;;;26.55;14.60;;;;;;;4.65;82.97;94416.44;5085925;28;20036;-75
2023/12/07 06:09:29;;;;;;;23.13;14.32;;;;;;;4.53;83.41;94425.78;5116443;28;20035;-75
2023/12/07 06:11:55;;;;;;;22.75;13.73;;;;;;;4.42;83.66;94398.19;5114425;28;20028;-75
2023/12/07 06:14:22;;;;;;;26.48;14.35;;;;;;;4.60;83.56;94424.50;5093782;28;20035;-77
2023/12/07 06:16:48;;;;;;;25.35;15.38;;;;;;;4.70;83.12;94419.53;5107717;27;20028;-76
2023/12/07 06:19:14;;;;;;;24.95;14.85;;;;;;;4.75;83.20;94422.63;5093352;28;20088;-75
2023/12/07 06:21:39;;;;;;;20.23;13.18;;;;;;;4.75;82.94;94425.22;5079252;28;20036;-75
2023/12/07 06:24:05;;;;;;;22.17;14.18;;;;;;;4.80;82.83;94432.66;5093549;28;20508;-75
2023/12/07 06:26:30;;;;;;;23.80;14.60;;;;;;;4.49;83.31;94432.09;5091638;28;20040;-75
2023/12/07 06:28:56;;;;;;;52.50;25.10;;;;;;;4.29;84.03;94405.09;5073326;28;20128;-75
2023/12/07 06:31:22;;;;;;;54.67;25.55;;;;;;;4.75;83.20;94425.22;5092875;28;20509;-76
2023/12/07 06:33:48;;;;;;;131.60;54.30;;;;;;;4.84;82.83;94424.59;5074325;28;20028;-75
2023/12/07 06:36:20;;;;;;;34.97;19.55;;;;;;;4.86;83.20;94430.47;5075257;28;20072;-75
2023/12/07 06:38:46;;;;;;;23.42;14.57;;;;;;;4.80;83.23;94436.03;5087926;28;20044;-75
2023/12/07 06:41:12;;;;;;;25.38;15.02;;;;;;;4.63;83.63;94444.03;5073976;28;20027;-75
2023/12/07 06:43:37;;;;;;;23.92;15.52;;;;;;;4.77;83.00;94446.53;5093315;28;20036;-75
2023/12/07 06:46:03;;;;;;;22.10;13.85;;;;;;;4.67;83.16;94432.63;5088590;28;20036;-75
2023/12/07 06:48:29;;;;;;;25.40;13.82;;;;;;;4.74;83.30;94444.16;5070976;28;20047;-75
2023/12/07 06:50:54;;;;;;;23.98;14.65;;;;;;;4.61;83.88;94430.44;5055344;28;20020;-75
2023/12/07 06:53:20;;;;;;;25.23;14.52;;;;;;;4.92;83.40;94442.13;5055723;28;20028;-75
2023/12/07 06:55:45;;;;;;;26.13;16.25;;;;;;;4.96;82.97;94438.44;5090609;28;20023;-75
2023/12/07 06:58:11;;;;;;;25.88;15.60;;;;;;;5.07;82.42;94442.84;5087295;28;20473;-74
2023/12/07 07:00:36;;;;;;;21.02;14.27;;;;;;;5.06;82.83;94438.63;5088181;28;20032;-75
2023/12/07 07:03:02;;;;;;;24.38;15.32;;;;;;;4.82;83.21;94441.06;5088260;28;20047;-75
2023/12/07 07:05:27;;;;;;;24.38;15.30;;;;;;;4.93;83.44;94436.03;5073822;28;20036;-75
2023/12/07 07:07:53;;;;;;;23.05;14.48;;;;;;;5.12;82.44;94456.22;5087786;28;20516;-74
2023/12/07 07:10:18;;;;;;;21.63;13.82;;;;;;;5.17;81.13;94443.88;5088262;28;20474;-75
2023/12/07 07:12:43;;;;;;;25.60;15.80;;;;;;;5.30;81.31;94451.59;5053397;28;20032;-75
2023/12/07 07:15:09;;;;;;;23.35;14.98;;;;;;;5.45;81.33;94457.47;5072488;28;20044;-75
2023/12/07 07:17:35;;;;;;;23.75;15.48;;;;;;;5.48;80.97;94449.50;5091831;28;20028;-75
2023/12/07 07:20:00;;;;;;;25.45;16.95;;;;;;;5.46;80.58;94456.50;5057366;28;20457;-77
2023/12/07 07:22:26;;;;;;;24.58;16.20;;;;;;;5.57;79.32;94461.75;5078632;28;20036;-73
2023/12/07 07:24:52;;;;;;;22.42;15.15;;;;;;;5.55;79.60;94456.72;5092831;28;20466;-77
2023/12/07 07:27:17;;;;;;;17.98;12.02;;;;;;;5.56;79.27;94460.13;5084063;28;20024;-75
2023/12/07 07:29:43;;;;;;;21.17;13.52;;;;;;;5.50;78.92;94447.66;5069043;28;20427;-75
2023/12/07 07:32:08;;;;;;;19.75;13.57;;;;;;;5.66;77.75;94452.59;5069418;28;20414;-76
2023/12/07 07:34:34;;;;;;;23.92;15.65;;;;;;;5.72;78.27;94457.31;5069419;28;20040;-75
2023/12/07 07:36:59;;;;;;;21.55;15.02;;;;;;;5.79;78.35;94455.94;5087448;28;20498;-75
2023/12/07 07:39:25;;;;;;;19.65;14.30;;;;;;;5.85;78.44;94459.84;5086401;28;20033;-75
2023/12/07 07:41:50;;;;;;;25.00;16.35;;;;;;;5.90;78.28;94455.19;5069254;28;20583;-75
2023/12/07 07:44:16;;;;;;;23.98;15.27;;;;;;;5.95;78.77;94453.97;5069001;28;20032;-75
2023/12/07 07:46:42;;;;;;;21.73;14.15;;;;;;;6.00;78.39;94462.22;5052554;28;20063;-75
2023/12/07 07:49:07;;;;;;;23.25;14.77;;;;;;;5.99;77.64;94457.16;5086022;28;20502;-75
2023/12/07 07:51:33;;;;;;;25.73;15.13;;;;;;;5.74;78.97;94469.16;5068006;28;20032;-75
2023/12/07 07:53:59;;;;;;;26.65;15.90;;;;;;;5.80;79.32;94476.47;5068816;28;20406;-75
2023/12/07 07:56:25;;;;;;;51.00;27.98;;;;;;;5.85;78.92;94475.31;5070212;28;20409;-75
2023/12/07 07:58:50;;;;;;;45.17;28.27;;;;;;;5.74;79.23;94468.31;5087939;28;20039;-75
2023/12/07 08:01:15;;;;;;;30.58;17.65;;;;;;;5.60;79.37;94464.16;5054469;28;20032;-75
2023/12/07 08:03:41;;;;;;;24.33;15.88;;;;;;;5.77;78.98;94473.28;5070750;28;20037;-75
2023/12/07 08:06:07;;;;;;;36.20;19.08;;;;;;;5.57;78.59;94467.75;5087664;28;20031;-75
2023/12/07 08:08:32;;;;;;;26.42;16.95;;;;;;;5.52;78.97;94456.13;5070654;28;20068;-75
2023/12/07 08:10:58;;;;;;;23.02;14.18;;;;;;;5.53;79.16;94491.25;5104626;28;20020;-75
2023/12/07 08:13:23;;;;;;;22.80;14.10;;;;;;;5.45;79.42;94491.75;5087387;28;20017;-75
2023/12/07 08:15:48;;;;;;;22.42;13.75;;;;;;;5.26;79.63;94493.94;5054038;28;20063;-75
2023/12/07 08:18:14;;;;;;;24.83;14.18;;;;;;;5.38;79.83;94490.56;5087671;28;20482;-75
2023/12/07 08:20:39;;;;;;;21.25;13.98;;;;;;;5.29;80.13;94491.16;5070486;28;20521;-75
2023/12/07 08:23:05;;;;;;;24.25;14.30;;;;;;;5.09;80.33;94500.22;5053810;28;20024;-75
2023/12/07 08:25:32;;;;;;;20.60;12.68;;;;;;;4.84;81.00;94488.13;5070509;28;20048;-75
2023/12/07 08:27:57;;;;;;;23.02;14.00;;;;;;;4.86;81.34;94497.41;5053975;28;20484;-75
2023/12/07 08:30:22;;;;;;;24.95;15.50;;;;;;;4.47;81.65;94442.47;5071602;28;20127;-75
2023/12/07 08:32:48;;;;;;;22.73;14.85;;;;;;;4.72;81.54;94510.34;5070484;28;20025;-75
2023/12/07 08:35:13;;;;;;;22.13;13.38;;;;;;;4.72;81.73;94499.22;5070429;28;20525;-75
2023/12/07 08:37:39;;;;;;;16.67;10.43;;;;;;;4.73;81.35;94513.72;5087090;28;20025;-75
2023/12/07 08:40:05;;;;;;;16.33;10.57;;;;;;;4.52;81.70;94514.19;5071280;28;20090;-75
2023/12/07 08:42:31;;;;;;;15.88;10.48;;;;;;;4.34;82.27;94521.31;5087263;28;20051;-75
2023/12/07 08:44:57;;;;;;;17.23;10.90;;;;;;;4.74;81.20;94508.50;5087179;28;20411;-75
2023/12/07 08:47:23;;;;;;;17.52;11.77;;;;;;;4.79;80.92;94500.47;5053380;28;20049;-75
2023/12/07 08:49:48;;;;;;;15.10;9.77;;;;;;;4.78;81.07;94509.94;5053541;28;20032;-75
2023/12/07 08:52:13;;;;;;;13.52;9.00;;;;;;;4.71;81.20;94524.16;5070128;28;20055;-75
2023/12/07 08:54:39;;;;;;;15.55;9.30;;;;;;;4.36;81.85;94509.19;5071427;28;20032;-75
2023/12/07 08:57:04;;;;;;;12.48;9.20;;;;;;;4.69;80.93;94516.50;5053360;28;20157;-75
2023/12/07 08:59:32;;;;;;;11.32;8.00;;;;;;;4.55;81.23;94516.56;5069988;28;20028;-75
2023/12/07 09:01:58;;;;;;;11.65;7.90;;;;;;;4.59;81.02;94524.91;5086130;28;20042;-75
2023/12/07 09:04:24;;;;;;;16.48;9.05;;;;;;;4.44;81.70;94524.16;5071317;28;20033;-75
2023/12/07 09:06:49;;;;;;;10.70;7.13;;;;;;;4.42;81.05;94529.38;5053330;28;20025;-75
2023/12/07 09:09:15;;;;;;;9.88;7.28;;;;;;;4.51;80.40;94527.97;5053189;28;20036;-75
2023/12/07 09:11:40;;;;;;;8.70;6.22;;;;;;;4.39;80.32;94511.56;5071274;28;20021;-75
2023/12/07 09:14:06;;;;;;;10.50;6.35;;;;;;;4.33;80.21;94524.00;5070126;28;20032;-75
2023/12/07 09:16:31;;;;;;;8.88;5.63;;;;;;;4.25;80.00;94509.03;5086685;28;20036;-75
2023/12/07 09:18:56;;;;;;;7.68;5.78;;;;;;;4.22;80.32;94516.97;5086480;28;20482;-75
2023/12/07 09:21:22;;;;;;;9.80;6.80;;;;;;;4.03;81.17;94522.41;5086761;28;20395;-75
2023/12/07 09:23:47;;;;;;;8.68;5.82;;;;;;;4.19;80.63;94528.25;5071209;28;20655;-75
2023/12/07 09:26:13;;;;;;;7.57;5.10;;;;;;;4.22;80.55;94530.63;5070934;28;20032;-75
2023/12/07 09:28:39;;;;;;;7.85;5.38;;;;;;;4.22;80.54;94529.81;5069463;28;20502;-75
2023/12/07 09:31:05;;;;;;;10.75;5.90;;;;;;;4.08;80.48;94519.56;5053157;28;20044;-75
2023/12/07 09:33:30;;;;;;;7.88;5.43;;;;;;;4.18;80.81;94525.75;5086508;28;20086;-75
2023/12/07 09:35:56;;;;;;;6.60;4.60;;;;;;;3.92;81.44;94530.78;5069753;28;20482;-75
2023/12/07 09:38:21;;;;;;;7.95;5.20;;;;;;;3.93;81.19;94527.31;5069466;28;20042;-75
2023/12/07 09:40:46;;;;;;;11.43;6.15;;;;;;;3.96;80.78;94531.44;5069584;28;20029;-75
2023/12/07 09:43:12;;;;;;;8.55;4.88;;;;;;;3.87;80.51;94514.00;5069683;28;20486;-74
2023/12/07 09:45:38;;;;;;;7.60;4.47;;;;;;;3.77;80.39;94516.31;5052901;28;20032;-75
2023/12/07 09:48:04;;;;;;;7.70;4.97;;;;;;;3.90;79.73;94526.66;5069525;28;20085;-75
2023/12/07 09:50:30;;;;;;;4.93;3.67;;;;;;;3.72;80.52;94529.41;5069778;28;20090;-75
2023/12/07 09:52:57;;;;;;;5.90;4.45;;;;;;;3.60;79.49;94491.63;5086449;28;20025;-75
2023/12/07 09:55:23;;;;;;;6.03;4.30;;;;;;;3.80;79.83;94518.69;5086396;28;20028;-76
2023/12/07 09:57:49;;;;;;;6.13;4.65;;;;;;;3.85;79.18;94528.69;5069415;28;20068;-75
2023/12/07 10:00:15;;;;;;;8.18;4.88;;;;;;;3.74;79.40;94522.47;5069403;28;20040;-75
2023/12/07 10:02:43;;;;;;;11.43;6.93;;;;;;;3.68;78.96;94522.84;5069479;28;20406;-75
2023/12/07 10:05:10;;;;;;;7.38;4.07;;;;;;;3.55;79.07;94527.06;5086489;28;20035;-75
2023/12/07 10:07:39;;;;;;;16.00;11.27;;;;;;;3.52;79.02;94528.06;5069165;28;20396;-75
2023/12/07 10:10:05;;;;;;;7.35;5.47;;;;;;;3.49;78.65;94528.25;5069662;28;20487;-75
2023/12/07 10:12:31;;;;;;;6.50;4.57;;;;;;;3.40;78.97;94528.78;5086399;28;20099;-75
2023/12/07 10:14:56;;;;;;;4.22;3.05;;;;;;;3.43;78.95;94530.38;5073844;28;20021;-75
2023/12/07 10:17:22;;;;;;;6.65;5.03;;;;;;;3.45;78.52;94531.91;5056248;28;20039;-75
2023/12/07 10:20:12;;;;;;;7.93;5.90;;;;;;;3.42;78.40;94528.69;5072761;28;20040;-75
2023/12/07 10:22:39;;;;;;;3.38;2.40;;;;;;;3.25;78.14;94515.09;5073775;28;20104;-75
2023/12/07 10:25:04;;;;;;;4.38;2.95;;;;;;;3.28;78.01;94519.22;5073152;28;20025;-75
2023/12/07 10:27:30;;;;;;;4.03;2.80;;;;;;;3.17;78.63;94519.84;5072532;28;20525;-75
2023/12/07 10:29:55;;;;;;;4.15;3.00;;;;;;;3.28;79.18;94526.94;5073808;28;20048;-75
2023/12/07 10:32:22;;;;;;;3.72;2.95;;;;;;;3.21;79.29;94518.78;5089606;28;20025;-75
2023/12/07 10:34:47;;;;;;;4.13;3.05;;;;;;;3.09;79.05;94514.34;5072904;28;20040;-75
2023/12/07 10:37:12;;;;;;;3.72;2.90;;;;;;;3.07;79.23;94522.16;5072739;28;20103;-75
2023/12/07 10:39:38;;;;;;;5.18;3.72;;;;;;;3.09;78.74;94525.47;5055743;28;20028;-75
2023/12/07 10:42:04;;;;;;;2.88;2.17;;;;;;;2.80;78.82;94510.91;5072596;28;20016;-74
2023/12/07 10:44:30;;;;;;;3.90;2.97;;;;;;;2.80;79.13;94513.47;5055976;28;20044;-75
2023/12/07 10:46:55;;;;;;;5.10;3.28;;;;;;;2.72;79.60;94524.16;5072390;28;20024;-75
2023/12/07 10:49:21;;;;;;;22.10;11.10;;;;;;;2.56;80.42;94520.81;5055650;28;20044;-75
2023/12/07 10:51:51;;;;;;;6.25;3.88;;;;;;;2.62;80.12;94526.44;5089353;28;20082;-75
2023/12/07 10:54:20;;;;;;;6.32;3.85;;;;;;;2.57;80.91;94518.16;5072358;28;20037;-74
2023/12/07 10:56:45;;;;;;;26.73;12.73;;;;;;;2.49;80.40;94504.94;5072433;28;20032;-75
2023/12/07 10:59:11;;;;;;;13.75;7.43;;;;;;;2.55;80.61;94525.13;5055546;28;20036;-75
2023/12/07 11:01:40;;;;;;;9.48;5.28;;;;;;;2.45;80.23;94518.84;5072170;28;20497;-75
2023/12/07 11:04:06;;;;;;;10.38;7.60;;;;;;;2.46;79.91;94520.50;5089080;28;20035;-75
2023/12/07 11:06:35;;;;;;;3.28;2.92;;;;;;;2.43;80.36;94525.81;5072192;28;20452;-75
2023/12/07 11:09:02;;;;;;;4.95;4.20;;;;;;;2.36;81.53;94519.34;5071936;28;20058;-75
2023/12/07 11:11:48;;;;;;;5.40;4.32;;;;;;;2.23;80.90;94494.41;5072045;28;20498;-75
2023/12/07 11:14:14;;;;;;;5.00;4.25;;;;;;;2.38;81.25;94514.97;5055528;28;20028;-75
2023/12/07 11:16:41;;;;;;;3.28;2.40;;;;;;;2.20;81.10;94520.22;5088975;28;20028;-75
2023/12/07 11:19:35;;;;;;;3.95;2.65;;;;;;;2.29;81.85;94513.75;5055657;28;20029;-76
2023/12/07 11:22:06;;;;;;;4.05;2.83;;;;;;;2.37;81.76;94519.28;5072223;28;20532;-75
2023/12/07 11:24:31;;;;;;;3.30;2.33;;;;;;;2.30;81.44;94514.56;5071771;28;20036;-75